Time;durP1;ratioP1;P1;durP2;ratioP2;P2;SDS_P1;SDS_P2;PMS_P1;PMS_P2;Temp;Humidity;BMP_temperature;BMP_pressure;BME280_temperature;BME280_humidity;BME280_pressure;Samples;Min_cycle;Max_cycle;Signal;HPM_P1;HPM_P2
2022/11/14 00:01:28;;;;;;;;;;;;;;;;;;5030881;28;20246;-63
2022/11/14 00:03:54;;;;;;;;;;;;;;;;;;5030676;28;20245;-64
2022/11/14 00:06:19;;;;;;;;;;;;;;;;;;5030906;28;20342;-64
2022/11/14 00:08:44;;;;;;;;;;;;;;;;;;5031104;28;20396;-64
2022/11/14 00:11:10;;;;;;;;;;;;;;;;;;5030251;28;19920;-63
2022/11/14 00:13:35;;;;;;;;;;;;;;;;;;5030787;28;20311;-64
2022/11/14 00:16:00;;;;;;;;;;;;;;;;;;5030372;28;20318;-64
2022/11/14 00:18:26;;;;;;;;;;;;;;;;;;5030519;28;20346;-64
2022/11/14 00:20:52;;;;;;;;;;;;;;;;;;5031688;28;20341;-64
2022/11/14 00:23:18;;;;;;;;;;;;;;;;;;5031856;28;20349;-64
2022/11/14 00:25:44;;;;;;;;;;;;;;;;;;5030386;28;20198;-64
2022/11/14 00:28:09;;;;;;;;;;;;;;;;;;5030338;28;20334;-64
2022/11/14 00:30:35;;;;;;;;;;;;;;;;;;5030050;28;20189;-64
2022/11/14 00:33:00;;;;;;;;;;;;;;;;;;5030391;28;20227;-64
2022/11/14 00:35:26;;;;;;;;;;;;;;;;;;5030249;28;20241;-63
2022/11/14 00:37:51;;;;;;;;;;;;;;;;;;5030067;28;19920;-64
2022/11/14 00:40:16;;;;;;;;;;;;;;;;;;5030185;28;20318;-63
2022/11/14 00:42:42;;;;;;;;;;;;;;;;;;5029523;28;19917;-63
2022/11/14 00:45:08;;;;;;;;;;;;;;;;;;5029965;28;20327;-63
2022/11/14 00:47:33;;;;;;;;;;;;;;;;;;5030504;28;19916;-63
2022/11/14 00:49:59;;;;;;;;;;;;;;;;;;5030544;28;20345;-64
2022/11/14 00:52:24;;;;;;;;;;;;;;;;;;5030536;28;20268;-64
2022/11/14 00:54:49;;;;;;;;;;;;;;;;;;5029983;28;20362;-64
2022/11/14 00:57:15;;;;;;;;;;;;;;;;;;5030101;28;19974;-64
2022/11/14 00:59:40;;;;;;;;;;;;;;;;;;5029577;28;20392;-64
2022/11/14 01:02:05;;;;;;;;;;;;;;;;;;5027504;28;20323;-64
2022/11/14 01:04:31;;;;;;;;;;;;;;;;;;5030490;28;20314;-63
2022/11/14 01:06:57;;;;;;;;;;;;;;;;;;5029809;28;20403;-64
2022/11/14 01:09:22;;;;;;;;;;;;;;;;;;5029144;28;20250;-64
2022/11/14 01:11:47;;;;;;;;;;;;;;;;;;5031074;28;20391;-64
2022/11/14 01:14:12;;;;;;;;;;;;;;;;;;5029620;28;20286;-64
2022/11/14 01:16:38;;;;;;;;;;;;;;;;;;5030303;28;20333;-64
2022/11/14 01:19:03;;;;;;;;;;;;;;;;;;5029393;28;20334;-64
2022/11/14 01:21:29;;;;;;;;;;;;;;;;;;5030069;28;19924;-64
2022/11/14 01:23:54;;;;;;;;;;;;;;;;;;5029532;28;20333;-63
2022/11/14 01:26:20;;;;;;;;;;;;;;;;;;5029810;28;20361;-63
2022/11/14 01:28:45;;;;;;;;;;;;;;;;;;5029077;28;19916;-64
2022/11/14 01:31:20;;;;;;;;;;;;;;;;;;5028913;28;20370;-64
2022/11/14 01:33:48;;;;;;;;;;;;;;;;;;5029373;28;20339;-63
2022/11/14 01:36:14;;;;;;;;;;;;;;;;;;5028904;28;19977;-64
2022/11/14 01:38:39;;;;;;;;;;;;;;;;;;5029033;28;19950;-64
2022/11/14 01:41:05;;;;;;;;;;;;;;;;;;5028795;28;20355;-63
2022/11/14 01:43:37;;;;;;;;;;;;;;;;;;5028857;28;20323;-63
2022/11/14 01:46:08;;;;;;;;;;;;;;;;;;5028840;28;20258;-64
2022/11/14 01:48:36;;;;;;;;;;;;;;;;;;5028787;28;20369;-63
2022/11/14 01:51:28;;;;;;;;;;;;;;;;;;5028914;28;20025;-64
2022/11/14 01:54:01;;;;;;;;;;;;;;;;;;5012758;28;20417;-64
2022/11/14 01:56:42;;;;;;;;;;;;;;;;;;5010984;28;20398;-63
2022/11/14 01:59:10;;;;;;;;;;;;;;;;;;5048665;28;20306;-64
2022/11/14 02:01:40;;;;;;;;;;;;;;;;;;5048175;28;20345;-63
2022/11/14 02:04:05;;;;;;;;;;;;;;;;;;5030925;28;20262;-64
2022/11/14 02:06:31;;;;;;;;;;;;;;;;;;5048663;28;19920;-63
2022/11/14 02:09:03;;;;;;;;;;;;;;;;;;5048873;28;20448;-64
2022/11/14 02:11:30;;;;;;;;;;;;;;;;;;5048754;28;19916;-64
2022/11/14 02:13:57;;;;;;;;;;;;;;;;;;5030643;28;20211;-64
2022/11/14 02:16:22;;;;;;;;;;;;;;;;;;5049437;28;20350;-63
2022/11/14 02:18:47;;;;;;;;;;;;;;;;;;5050139;28;20370;-64
2022/11/14 02:21:13;;;;;;;;;;;;;;;;;;5049949;28;20253;-64
2022/11/14 02:23:38;;;;;;;;;;;;;;;;;;5048598;28;19938;-64
2022/11/14 02:26:03;;;;;;;;;;;;;;;;;;5048521;28;19920;-64
2022/11/14 02:28:29;;;;;;;;;;;;;;;;;;5048329;28;20354;-63
2022/11/14 02:30:54;;;;;;;;;;;;;;;;;;5050183;28;20346;-64
2022/11/14 02:33:19;;;;;;;;;;;;;;;;;;5048765;28;20361;-63
2022/11/14 02:35:45;;;;;;;;;;;;;;;;;;5048822;28;20349;-63
2022/11/14 02:38:10;;;;;;;;;;;;;;;;;;5048217;28;20323;-63
2022/11/14 02:40:36;;;;;;;;;;;;;;;;;;5048101;28;20281;-64
2022/11/14 02:43:01;;;;;;;;;;;;;;;;;;5049720;28;20398;-64
2022/11/14 02:45:26;;;;;;;;;;;;;;;;;;5048709;28;20342;-64
2022/11/14 02:47:52;;;;;;;;;;;;;;;;;;5049926;28;20187;-64
2022/11/14 02:50:17;;;;;;;;;;;;;;;;;;5048807;28;20324;-63
2022/11/14 02:52:42;;;;;;;;;;;;;;;;;;5048537;28;20006;-64
2022/11/14 02:55:08;;;;;;;;;;;;;;;;;;5048416;28;20382;-63
2022/11/14 02:57:34;;;;;;;;;;;;;;;;;;5049803;28;19989;-63
2022/11/14 02:59:59;;;;;;;;;;;;;;;;;;5048132;28;19943;-64
2022/11/14 03:02:24;;;;;;;;;;;;;;;;;;5048192;28;20408;-63
2022/11/14 03:04:50;;;;;;;;;;;;;;;;;;5049428;28;19916;-63
2022/11/14 03:07:15;;;;;;;;;;;;;;;;;;5029831;28;20234;-63
2022/11/14 03:09:41;;;;;;;;;;;;;;;;;;5048224;28;20266;-63
2022/11/14 03:12:06;;;;;;;;;;;;;;;;;;5048165;28;20287;-64
2022/11/14 03:14:32;;;;;;;;;;;;;;;;;;5050144;28;20383;-64
2022/11/14 03:16:57;;;;;;;;;;;;;;;;;;5053146;28;19945;-63
2022/11/14 03:19:22;;;;;;;;;;;;;;;;;;5052343;28;20342;-63
2022/11/14 03:21:48;;;;;;;;;;;;;;;;;;5051713;28;20253;-63
2022/11/14 03:24:13;;;;;;;;;;;;;;;;;;5051601;28;20406;-63
2022/11/14 03:26:39;;;;;;;;;;;;;;;;;;5051337;28;20253;-63
2022/11/14 03:29:04;;;;;;;;;;;;;;;;;;5051852;28;20293;-64
2022/11/14 03:31:29;;;;;;;;;;;;;;;;;;5051162;28;19973;-63
2022/11/14 03:33:55;;;;;;;;;;;;;;;;;;5051354;28;20269;-63
2022/11/14 03:36:20;;;;;;;;;;;;;;;;;;5051233;28;20366;-63
2022/11/14 03:38:45;;;;;;;;;;;;;;;;;;5051209;28;20313;-63
2022/11/14 03:41:11;;;;;;;;;;;;;;;;;;5051199;28;20314;-63
2022/11/14 03:43:36;;;;;;;;;;;;;;;;;;5051777;28;20006;-63
2022/11/14 03:46:02;;;;;;;;;;;;;;;;;;5051343;28;20408;-63
2022/11/14 03:48:28;;;;;;;;;;;;;;;;;;5051146;28;20334;-64
2022/11/14 03:50:54;;;;;;;;;;;;;;;;;;5051095;28;20329;-63
2022/11/14 03:53:20;;;;;;;;;;;;;;;;;;5052061;28;20303;-63
2022/11/14 03:55:45;;;;;;;;;;;;;;;;;;5051028;28;20231;-63
2022/11/14 03:58:11;;;;;;;;;;;;;;;;;;5051061;28;20334;-63
2022/11/14 04:00:36;;;;;;;;;;;;;;;;;;5051108;28;20348;-63
2022/11/14 04:03:01;;;;;;;;;;;;;;;;;;5050585;28;20254;-63
2022/11/14 04:05:27;;;;;;;;;;;;;;;;;;5050944;28;20250;-64
2022/11/14 04:07:52;;;;;;;;;;;;;;;;;;5050651;28;20329;-63
2022/11/14 04:10:18;;;;;;;;;;;;;;;;;;5050587;28;20320;-63
2022/11/14 04:12:51;;;;;;;;;;;;;;;;;;5051158;28;20412;-63
2022/11/14 04:15:17;;;;;;;;;;;;;;;;;;5050764;28;20337;-64
2022/11/14 04:17:43;;;;;;;;;;;;;;;;;;5032328;28;19916;-63
2022/11/14 04:20:09;;;;;;;;;;;;;;;;;;5052035;28;19974;-64
2022/11/14 04:22:34;;;;;;;;;;;;;;;;;;5051078;28;20434;-63
2022/11/14 04:24:59;;;;;;;;;;;;;;;;;;5051465;28;20287;-64
2022/11/14 04:27:25;;;;;;;;;;;;;;;;;;5052211;28;20238;-64
2022/11/14 04:29:50;;;;;;;;;;;;;;;;;;5049777;28;20318;-63
2022/11/14 04:32:15;;;;;;;;;;;;;;;;;;5050039;28;20287;-63
2022/11/14 04:34:41;;;;;;;;;;;;;;;;;;5050061;28;20326;-63
2022/11/14 04:37:06;;;;;;;;;;;;;;;;;;5050410;28;20249;-64
2022/11/14 04:39:31;;;;;;;;;;;;;;;;;;5050166;28;20265;-63
2022/11/14 04:41:57;;;;;;;;;;;;;;;;;;5050306;28;21646;-63
2022/11/14 04:44:22;;;;;;;;;;;;;;;;;;5050295;28;20383;-64
2022/11/14 04:46:47;;;;;;;;;;;;;;;;;;5050101;28;20327;-63
2022/11/14 04:49:13;;;;;;;;;;;;;;;;;;5017827;28;20318;-64
2022/11/14 04:51:38;;;;;;;;;;;;;;;;;;5005743;28;19916;-63
2022/11/14 04:54:03;;;;;;;;;;;;;;;;;;5028348;28;20382;-64
2022/11/14 04:56:29;;;;;;;;;;;;;;;;;;5009676;28;20299;-63
2022/11/14 04:58:54;;;;;;;;;;;;;;;;;;5010608;28;20291;-63
2022/11/14 05:01:20;;;;;;;;;;;;;;;;;;5009486;28;20404;-63
2022/11/14 05:03:45;;;;;;;;;;;;;;;;;;5009532;28;20015;-63
2022/11/14 05:06:10;;;;;;;;;;;;;;;;;;5009909;28;20289;-63
2022/11/14 05:08:35;;;;;;;;;;;;;;;;;;5009789;28;20396;-63
2022/11/14 05:11:01;;;;;;;;;;;;;;;;;;5009620;28;20343;-64
2022/11/14 05:13:26;;;;;;;;;;;;;;;;;;5009878;28;19916;-63
2022/11/14 05:15:51;;;;;;;;;;;;;;;;;;5009687;28;20311;-63
2022/11/14 05:18:17;;;;;;;;;;;;;;;;;;4991799;28;19916;-63
2022/11/14 05:20:42;;;;;;;;;;;;;;;;;;5011360;28;19920;-64
2022/11/14 05:23:19;;;;;;;;;;;;;;;;;;5010280;28;20351;-64
2022/11/14 05:25:45;;;;;;;;;;;;;;;;;;5009701;28;20323;-64
2022/11/14 05:28:10;;;;;;;;;;;;;;;;;;5010164;28;20349;-65
2022/11/14 05:30:36;;;;;;;;;;;;;;;;;;5009325;28;20350;-64
2022/11/14 05:33:01;;;;;;;;;;;;;;;;;;5007638;28;19917;-64
2022/11/14 05:35:26;;;;;;;;;;;;;;;;;;5006541;28;20570;-63
2022/11/14 05:37:52;;;;;;;;;;;;;;;;;;5009344;28;20246;-64
2022/11/14 05:40:18;;;;;;;;;;;;;;;;;;5009007;28;20343;-64
2022/11/14 05:42:43;;;;;;;;;;;;;;;;;;5009370;28;20338;-63
2022/11/14 05:45:09;;;;;;;;;;;;;;;;;;5008486;28;20331;-63
2022/11/14 05:47:35;;;;;;;;;;;;;;;;;;5008623;28;20315;-64
2022/11/14 05:50:00;;;;;;;;;;;;;;;;;;5008854;28;20335;-64
2022/11/14 05:52:26;;;;;;;;;;;;;;;;;;5009040;28;20327;-64
2022/11/14 05:54:51;;;;;;;;;;;;;;;;;;5026173;28;20323;-64
2022/11/14 05:57:18;;;;;;;;;;;;;;;;;;5029637;28;21127;-64
2022/11/14 05:59:44;;;;;;;;;;;;;;;;;;5029034;28;20249;-64
2022/11/14 06:02:09;;;;;;;;;;;;;;;;;;5029211;28;20417;-63
2022/11/14 06:04:34;;;;;;;;;;;;;;;;;;5029550;28;20329;-63
2022/11/14 06:07:00;;;;;;;;;;;;;;;;;;5029056;28;20349;-64
2022/11/14 06:09:25;;;;;;;;;;;;;;;;;;5028587;28;20372;-63
2022/11/14 06:11:50;;;;;;;;;;;;;;;;;;5028839;28;20307;-63
2022/11/14 06:14:16;;;;;;;;;;;;;;;;;;5029100;28;20228;-63
2022/11/14 06:16:41;;;;;;;;;;;;;;;;;;5028428;28;20322;-63
2022/11/14 06:19:06;;;;;;;;;;;;;;;;;;5029154;28;20343;-64
2022/11/14 06:21:32;;;;;;;;;;;;;;;;;;5028785;28;20256;-64
2022/11/14 06:23:57;;;;;;;;;;;;;;;;;;5029405;28;19996;-63
2022/11/14 06:27:05;;;;;;;;;;;;;;;;;;5662679;22;20041;31
2022/11/14 06:29:30;;;;;;;;;;;;;;;;;;4928436;28;20056;-63
2022/11/14 06:31:55;;;;;;;;;;;;;;;;;;4930225;28;19922;-64
2022/11/14 06:34:21;;;;;;;;;;;;;;;;;;4932090;28;20383;-63
2022/11/14 06:36:46;;;;;;;;;;;;;;;;;;4930165;28;19940;-64
2022/11/14 06:39:11;;;;;;;;;;;;;;;;;;4930833;28;19921;-64
2022/11/14 06:41:36;;;;;;;;;;;;;;;;;;4930072;28;20328;-64
2022/11/14 06:44:02;;;;;;;;;;;;;;;;;;4930557;28;19944;-64
2022/11/14 06:46:27;;;;;;;;;;;;;;;;;;4930512;28;19918;-64
2022/11/14 06:48:53;;;;;;;;;;;;;;;;;;4932774;28;20085;-63
2022/11/14 06:51:18;;;;;;;;;;;;;;;;;;4933741;28;20391;-64
2022/11/14 06:53:44;;;;;;;;;;;;;;;;;;4934214;28;20252;-64
2022/11/14 06:56:12;;;;;;;;;;;;;;;;;;4935927;28;20243;-63
2022/11/14 06:58:43;;;;;;;;;;;;;;;;;;4933820;28;20324;-64
2022/11/14 07:01:17;;;;;;;;;;;;;;;;;;4933709;28;20355;-63
2022/11/14 07:03:43;;;;;;;;;;;;;;;;;;4932104;28;20251;-63
2022/11/14 07:06:11;;;;;;;;;;;;;;;;;;4933982;28;20217;-64
2022/11/14 07:08:36;;;;;;;;;;;;;;;;;;4933356;28;19944;-63
2022/11/14 07:11:21;;;;;;;;;;;;;;;;;;4933528;28;20320;-64
2022/11/14 07:13:54;;;;;;;;;;;;;;;;;;4933658;28;19988;-63
2022/11/14 07:16:22;;;;;;;;;;;;;;;;;;4933536;28;20264;-64
2022/11/14 07:18:47;;;;;;;;;;;;;;;;;;4934513;28;19918;-63
2022/11/14 07:21:13;;;;;;;;;;;;;;;;;;4933526;28;19941;-64
2022/11/14 07:23:38;;;;;;;;;;;;;;;;;;4933488;28;20294;-63
2022/11/14 07:26:06;;;;;;;;;;;;;;;;;;4933381;28;19922;-63
2022/11/14 07:28:32;;;;;;;;;;;;;;;;;;4932777;28;20427;-64
2022/11/14 07:30:58;;;;;;;;;;;;;;;;;;4916109;28;20225;-64
2022/11/14 07:33:23;;;;;;;;;;;;;;;;;;4932911;28;19941;-64
2022/11/14 07:35:50;;;;;;;;;;;;;;;;;;4934736;28;20101;-64
2022/11/14 07:38:15;;;;;;;;;;;;;;;;;;4933523;28;20348;-63
2022/11/14 07:40:41;;;;;;;;;;;;;;;;;;4934639;28;20353;-64
2022/11/14 07:43:06;;;;;;;;;;;;;;;;;;4932672;28;20329;-63
2022/11/14 07:45:31;;;;;;;;;;;;;;;;;;4933458;28;20308;-63
2022/11/14 07:48:00;;;;;;;;;;;;;;;;;;4932750;28;20367;-64
2022/11/14 07:50:27;;;;;;;;;;;;;;;;;;4932849;28;20326;-63
2022/11/14 07:52:53;;;;;;;;;;;;;;;;;;4934057;28;20395;-64
2022/11/14 07:55:19;;;;;;;;;;;;;;;;;;4932561;28;19957;-64
2022/11/14 07:57:46;;;;;;;;;;;;;;;;;;4933089;28;20083;-64
2022/11/14 08:00:12;;;;;;;;;;;;;;;;;;4932917;28;20193;-64
2022/11/14 08:02:38;;;;;;;;;;;;;;;;;;4932943;28;20256;-63
2022/11/14 08:05:03;;;;;;;;;;;;;;;;;;4932573;28;19917;-64
2022/11/14 08:07:29;;;;;;;;;;;;;;;;;;4932842;28;20386;-64
2022/11/14 08:09:54;;;;;;;;;;;;;;;;;;4932502;28;19940;-64
2022/11/14 08:12:20;;;;;;;;;;;;;;;;;;4933345;28;20461;-64
2022/11/14 08:14:45;;;;;;;;;;;;;;;;;;4932789;28;19918;-64
2022/11/14 08:17:10;;;;;;;;;;;;;;;;;;4932169;28;20339;-63
2022/11/14 08:19:36;;;;;;;;;;;;;;;;;;4932718;28;20355;-64
2022/11/14 08:22:01;;;;;;;;;;;;;;;;;;4933167;28;20239;-64
2022/11/14 08:24:26;;;;;;;;;;;;;;;;;;4932426;28;20316;-63
2022/11/14 08:26:52;;;;;;;;;;;;;;;;;;4932182;28;20443;-64
2022/11/14 08:29:17;;;;;;;;;;;;;;;;;;4932352;28;20326;-64
2022/11/14 08:31:44;;;;;;;;;;;;;;;;;;4932099;28;20328;-64
2022/11/14 08:34:09;;;;;;;;;;;;;;;;;;4930866;28;20387;-64
2022/11/14 08:36:35;;;;;;;;;;;;;;;;;;4932105;28;20319;-63
2022/11/14 08:39:00;;;;;;;;;;;;;;;;;;4933300;28;20291;-64
2022/11/14 08:41:25;;;;;;;;;;;;;;;;;;4933360;28;20328;-64
2022/11/14 08:43:51;;;;;;;;;;;;;;;;;;4930262;28;20228;-63
2022/11/14 08:46:16;;;;;;;;;;;;;;;;;;4932060;28;20299;-63
2022/11/14 08:48:41;;;;;;;;;;;;;;;;;;4932493;28;20316;-64
2022/11/14 08:51:07;;;;;;;;;;;;;;;;;;4932941;28;20340;-63
2022/11/14 08:53:33;;;;;;;;;;;;;;;;;;4933331;28;20316;-64
2022/11/14 08:55:58;;;;;;;;;;;;;;;;;;4932153;28;20273;-64
2022/11/14 08:58:26;;;;;;;;;;;;;;;;;;4928429;28;20395;-64
2022/11/14 09:00:52;;;;;;;;;;;;;;;;;;4900728;28;20395;-64
2022/11/14 09:03:17;;;;;;;;;;;;;;;;;;4931831;28;20213;-63
2022/11/14 09:05:43;;;;;;;;;;;;;;;;;;4883275;28;19983;-64
2022/11/14 09:08:09;;;;;;;;;;;;;;;;;;4931429;28;20387;-64
2022/11/14 09:10:36;;;;;;;;;;;;;;;;;;4930931;28;20255;-63
2022/11/14 09:13:01;;;;;;;;;;;;;;;;;;4931210;28;19941;-64
2022/11/14 09:15:27;;;;;;;;;;;;;;;;;;4930636;28;20351;-64
2022/11/14 09:17:54;;;;;;;;;;;;;;;;;;4930823;28;20303;-63
2022/11/14 09:20:20;;;;;;;;;;;;;;;;;;4929287;28;20263;-64
2022/11/14 09:22:45;;;;;;;;;;;;;;;;;;4930968;28;20336;-64
2022/11/14 09:25:11;;;;;;;;;;;;;;;;;;4931200;28;20315;-64
2022/11/14 09:27:37;;;;;;;;;;;;;;;;;;4930948;28;20407;-63
2022/11/14 09:30:02;;;;;;;;;;;;;;;;;;4931042;28;19922;-64
2022/11/14 09:32:28;;;;;;;;;;;;;;;;;;4931447;28;20252;-64
2022/11/14 09:34:53;;;;;;;;;;;;;;;;;;4913611;28;19917;-64
2022/11/14 09:37:18;;;;;;;;;;;;;;;;;;4876080;28;20201;-64
2022/11/14 09:39:44;;;;;;;;;;;;;;;;;;4930980;28;20336;-64
2022/11/14 09:42:51;;;;;;;;;;;;;;;;;;4930913;28;20332;-63
2022/11/14 09:45:16;;;;;;;;;;;;;;;;;;4916843;28;20339;-64
2022/11/14 09:48:02;;;;;;;;;;;;;;;;;;4913270;28;20320;-64
2022/11/14 09:50:32;;;;;;;;;;;;;;;;;;4931041;28;20359;-64
2022/11/14 09:53:02;;;;;;;;;;;;;;;;;;4913775;28;19918;-64
2022/11/14 09:55:29;;;;;;;;;;;;;;;;;;4913876;28;20248;-64
2022/11/14 09:57:55;;;;;;;;;;;;;;;;;;4930758;28;20255;-63
2022/11/14 10:00:22;;;;;;;;;;;;;;;;;;4930153;28;20230;-64
2022/11/14 10:03:00;;;;;;;;;;;;;;;;;;4930168;28;20025;-64
2022/11/14 10:05:49;;;;;;;;;;;;;;;;;;4930876;28;20481;-65
2022/11/14 10:08:57;;;;;;;;;;;;;;;;;;4931527;28;20280;-64
2022/11/14 10:11:36;;;;;;;;;;;;;;;;;;4930168;28;19944;-64
2022/11/14 10:14:02;;;;;;;;;;;;;;;;;;4931446;28;20350;-64
2022/11/14 10:16:42;;;;;;;;;;;;;;;;;;4930090;28;20332;-63
2022/11/14 10:19:19;;;;;;;;;;;;;;;;;;4930848;28;20308;-64
2022/11/14 10:21:52;;;;;;;;;;;;;;;;;;4930928;28;20320;-64
2022/11/14 10:24:17;;;;;;;;;;;;;;;;;;4934128;28;19918;-64
2022/11/14 10:27:06;;;;;;;;;;;;;;;;;;4935216;28;20304;-64
2022/11/14 10:29:37;;;;;;;;;;;;;;;;;;4917673;28;20319;-64
2022/11/14 10:32:30;;;;;;;;;;;;;;;;;;4934193;28;19922;-64
2022/11/14 10:35:18;;;;;;;;;;;;;;;;;;4934754;28;19917;-64
2022/11/14 10:38:03;;;;;;;;;;;;;;;;;;4916965;28;20287;-64
2022/11/14 10:40:45;;;;;;;;;;;;;;;;;;4934128;28;20286;-63
2022/11/14 10:43:33;;;;;;;;;;;;;;;;;;4918792;28;20308;-64
2022/11/14 10:46:06;;;;;;;;;;;;;;;;;;4934412;28;19940;-64
2022/11/14 10:48:38;;;;;;;;;;;;;;;;;;4917530;28;20378;-64
2022/11/14 10:51:07;;;;;;;;;;;;;;;;;;4916852;28;20295;-64
2022/11/14 10:53:32;;;;;;;;;;;;;;;;;;4933974;28;20299;-64
2022/11/14 10:55:57;;;;;;;;;;;;;;;;;;4934293;28;19921;-64
2022/11/14 10:58:23;;;;;;;;;;;;;;;;;;4916308;28;20431;-64
2022/11/14 11:00:48;;;;;;;;;;;;;;;;;;4934403;28;20319;-64
2022/11/14 11:03:14;;;;;;;;;;;;;;;;;;4916429;28;20020;-64
2022/11/14 11:05:53;;;;;;;;;;;;;;;;;;4934358;28;20319;-64
2022/11/14 11:11:28;;;;;;;;;;;;;;;;;;4935529;28;20295;-64
2022/11/14 11:13:54;;;;;;;;;;;;;;;;;;4933748;28;20383;-64
2022/11/14 11:16:25;;;;;;;;;;;;;;;;;;4915897;28;20240;-64
2022/11/14 11:18:51;;;;;;;;;;;;;;;;;;4933943;28;20344;-64
2022/11/14 11:21:22;;;;;;;;;;;;;;;;;;4935085;28;20367;-64
2022/11/14 11:23:52;;;;;;;;;;;;;;;;;;4933576;28;20284;-64
2022/11/14 11:26:28;;;;;;;;;;;;;;;;;;4933551;28;20339;-64
2022/11/14 11:29:05;;;;;;;;;;;;;;;;;;4932689;28;20241;-64
2022/11/14 11:31:50;;;;;;;;;;;;;;;;;;4933517;28;20312;-64
2022/11/14 11:34:21;;;;;;;;;;;;;;;;;;4932163;28;20367;-64
2022/11/14 11:36:49;;;;;;;;;;;;;;;;;;4935055;28;20308;-64
2022/11/14 11:39:24;;;;;;;;;;;;;;;;;;4915936;28;19941;-64
2022/11/14 11:41:49;;;;;;;;;;;;;;;;;;4916072;28;20351;-63
2022/11/14 11:44:16;;;;;;;;;;;;;;;;;;4915818;28;20297;-63
2022/11/14 11:46:52;;;;;;;;;;;;;;;;;;4932911;28;20234;-64
2022/11/14 11:49:29;;;;;;;;;;;;;;;;;;4933305;28;20459;-64
2022/11/14 11:51:55;;;;;;;;;;;;;;;;;;4932993;28;20009;-64
2022/11/14 11:54:25;;;;;;;;;;;;;;;;;;4932954;28;20391;-64
2022/11/14 11:56:54;;;;;;;;;;;;;;;;;;4933460;28;20320;-64
2022/11/14 11:59:41;;;;;;;;;;;;;;;;;;4916087;28;20016;-64
2022/11/14 12:02:24;;;;;;;;;;;;;;;;;;4933034;28;20206;-64
2022/11/14 12:04:50;;;;;;;;;;;;;;;;;;4933154;28;20220;-64
2022/11/14 12:07:29;;;;;;;;;;;;;;;;;;4915466;28;20248;-64
2022/11/14 12:09:56;;;;;;;;;;;;;;;;;;4932465;28;20316;-64
2022/11/14 12:12:47;;;;;;;;;;;;;;;;;;4933326;28;19940;-64
2022/11/14 12:15:50;;;;;;;;;;;;;;;;;;4918422;28;19921;-64
2022/11/14 12:18:28;;;;;;;;;;;;;;;;;;4932595;28;20271;-64
2022/11/14 12:21:06;;;;;;;;;;;;;;;;;;4932699;28;20308;-64
2022/11/14 12:23:55;;;;;;;;;;;;;;;;;;4932397;28;20252;-64
2022/11/14 12:26:26;;;;;;;;;;;;;;;;;;4932846;28;19956;-64
2022/11/14 12:29:14;;;;;;;;;;;;;;;;;;4932368;28;20398;-64
2022/11/14 12:31:40;;;;;;;;;;;;;;;;;;4932227;28;19940;-64
2022/11/14 12:34:24;;;;;;;;;;;;;;;;;;4932120;28;20327;-64
2022/11/14 12:36:50;;;;;;;;;;;;;;;;;;4931596;28;20276;-65
2022/11/14 12:39:27;;;;;;;;;;;;;;;;;;4914738;28;20272;-64
2022/11/14 12:42:09;;;;;;;;;;;;;;;;;;4915260;28;20346;-64
2022/11/14 12:44:37;;;;;;;;;;;;;;;;;;4915113;28;20344;-64
2022/11/14 12:47:05;;;;;;;;;;;;;;;;;;4932208;28;20275;-64
2022/11/14 12:49:46;;;;;;;;;;;;;;;;;;4931815;28;20248;-64
2022/11/14 12:52:39;;;;;;;;;;;;;;;;;;4931868;28;20343;-64
2022/11/14 12:55:25;;;;;;;;;;;;;;;;;;4931965;28;19917;-64
2022/11/14 12:58:11;;;;;;;;;;;;;;;;;;4900928;28;20258;-64
2022/11/14 13:01:03;;;;;;;;;;;;;;;;;;4931984;28;20235;-64
2022/11/14 13:03:29;;;;;;;;;;;;;;;;;;4931549;28;20295;-64
2022/11/14 13:06:15;;;;;;;;;;;;;;;;;;4858779;28;20279;-64
2022/11/14 13:08:56;;;;;;;;;;;;;;;;;;4917083;28;20328;-64
2022/11/14 13:22:45;;;;;;;;;;;;;;;;;;4904985;28;20350;-64
2022/11/14 13:25:10;;;;;;;;;;;;;;;;;;4931167;28;19922;-64
2022/11/14 13:27:36;;;;;;;;;;;;;;;;;;4931164;28;19922;-64
2022/11/14 13:30:06;;;;;;;;;;;;;;;;;;4913984;28;19981;-64
2022/11/14 13:32:40;;;;;;;;;;;;;;;;;;4931388;28;20320;-64
2022/11/14 13:35:19;;;;;;;;;;;;;;;;;;4931032;28;20287;-64
2022/11/14 13:38:00;;;;;;;;;;;;;;;;;;4932678;28;20328;-64
2022/11/14 13:40:44;;;;;;;;;;;;;;;;;;4930693;28;20344;-64
2022/11/14 13:43:09;;;;;;;;;;;;;;;;;;4931563;28;20417;-64
2022/11/14 13:45:40;;;;;;;;;;;;;;;;;;4931181;28;20451;-64
2022/11/14 13:48:08;;;;;;;;;;;;;;;;;;4930887;28;20286;-64
2022/11/14 13:50:35;;;;;;;;;;;;;;;;;;4930967;28;20282;-64
2022/11/14 13:53:09;;;;;;;;;;;;;;;;;;4930655;28;20225;-64
2022/11/14 13:55:53;;;;;;;;;;;;;;;;;;4931261;28;20299;-64
2022/11/14 13:58:46;;;;;;;;;;;;;;;;;;4930976;28;19941;-64
2022/11/14 14:01:29;;;;;;;;;;;;;;;;;;4931078;28;20326;-64
2022/11/14 14:03:57;;;;;;;;;;;;;;;;;;4930645;28;20224;-64
2022/11/14 14:06:49;;;;;;;;;;;;;;;;;;4930821;28;19944;-64
2022/11/14 14:09:23;;;;;;;;;;;;;;;;;;4913698;28;20217;-64
2022/11/14 14:11:48;;;;;;;;;;;;;;;;;;4931785;28;20321;-64
2022/11/14 14:14:40;;;;;;;;;;;;;;;;;;4930854;28;20201;-64
2022/11/14 14:17:28;;;;;;;;;;;;;;;;;;4930960;28;20213;-64
2022/11/14 14:20:15;;;;;;;;;;;;;;;;;;4915992;28;19917;-64
2022/11/14 14:23:09;;;;;;;;;;;;;;;;;;4930591;28;20012;-64
2022/11/14 14:26:17;;;;;;;;;;;;;;;;;;4930402;28;19944;-64
2022/11/14 14:28:58;;;;;;;;;;;;;;;;;;4930743;28;20375;-64
2022/11/14 14:31:23;;;;;;;;;;;;;;;;;;4930420;28;20295;-64
2022/11/14 14:33:50;;;;;;;;;;;;;;;;;;4931777;28;20067;-64
2022/11/14 14:36:26;;;;;;;;;;;;;;;;;;4930288;28;20415;-64
2022/11/14 14:39:18;;;;;;;;;;;;;;;;;;4930537;28;19918;-64
2022/11/14 14:41:43;;;;;;;;;;;;;;;;;;4930637;28;20348;-64
2022/11/14 14:44:42;;;;;;;;;;;;;;;;;;4930242;28;20366;-64
2022/11/14 14:47:35;;;;;;;;;;;;;;;;;;4927234;28;19980;-64
2022/11/14 14:50:14;;;;;;;;;;;;;;;;;;4914593;28;20358;-64
2022/11/14 14:52:39;;;;;;;;;;;;;;;;;;4914448;28;20255;-64
2022/11/14 14:55:16;;;;;;;;;;;;;;;;;;4930797;28;20346;-63
2022/11/14 14:57:41;;;;;;;;;;;;;;;;;;4914257;28;20308;-64
2022/11/14 15:00:18;;;;;;;;;;;;;;;;;;4930837;28;20311;-64
2022/11/14 15:02:43;;;;;;;;;;;;;;;;;;4929858;28;19918;-63
2022/11/14 15:05:09;;;;;;;;;;;;;;;;;;4930408;28;20392;-64
2022/11/14 15:07:37;;;;;;;;;;;;;;;;;;4912966;28;20375;-64
2022/11/14 15:10:04;;;;;;;;;;;;;;;;;;4916495;28;20352;-64
2022/11/14 15:12:30;;;;;;;;;;;;;;;;;;4933754;28;20306;-64
2022/11/14 15:14:56;;;;;;;;;;;;;;;;;;4916318;28;20218;-64
2022/11/14 15:17:22;;;;;;;;;;;;;;;;;;4933303;28;19943;-64
2022/11/14 15:19:50;;;;;;;;;;;;;;;;;;4916441;28;19921;-64
2022/11/14 15:22:18;;;;;;;;;;;;;;;;;;4933871;28;20261;-64
2022/11/14 15:25:07;;;;;;;;;;;;;;;;;;4935171;28;20355;-64
2022/11/14 15:27:33;;;;;;;;;;;;;;;;;;4933126;28;20367;-63
2022/11/14 15:30:04;;;;;;;;;;;;;;;;;;4933470;28;20388;-64
2022/11/14 15:32:30;;;;;;;;;;;;;;;;;;4933403;28;20340;-64
2022/11/14 15:35:07;;;;;;;;;;;;;;;;;;4933052;28;20367;-64
2022/11/14 15:37:33;;;;;;;;;;;;;;;;;;4933540;28;20352;-64
2022/11/14 15:40:32;;;;;;;;;;;;;;;;;;4933068;28;20225;-64
2022/11/14 15:42:58;;;;;;;;;;;;;;;;;;4910883;28;20364;-64
2022/11/14 15:45:28;;;;;;;;;;;;;;;;;;4934388;28;20028;-64
2022/11/14 15:48:03;;;;;;;;;;;;;;;;;;4933406;28;20291;-64
2022/11/14 15:50:33;;;;;;;;;;;;;;;;;;4933355;28;20293;-64
2022/11/14 15:53:05;;;;;;;;;;;;;;;;;;4932954;28;19941;-64
2022/11/14 15:55:30;;;;;;;;;;;;;;;;;;4919759;28;19925;-64
2022/11/14 15:57:55;;;;;;;;;;;;;;;;;;4932718;28;19941;-64
2022/11/14 16:00:21;;;;;;;;;;;;;;;;;;4933002;28;20256;-64
2022/11/14 16:02:48;;;;;;;;;;;;;;;;;;4932643;28;20469;-64
2022/11/14 16:05:14;;;;;;;;;;;;;;;;;;4934259;28;20218;-64
2022/11/14 16:07:40;;;;;;;;;;;;;;;;;;4915498;28;20325;-64
2022/11/14 16:10:16;;;;;;;;;;;;;;;;;;4932887;28;20464;-64
2022/11/14 16:12:42;;;;;;;;;;;;;;;;;;4915731;28;19944;-64
2022/11/14 16:15:08;;;;;;;;;;;;;;;;;;4932703;28;19921;-64
2022/11/14 16:17:36;;;;;;;;;;;;;;;;;;4932959;28;20261;-64
2022/11/14 16:20:06;;;;;;;;;;;;;;;;;;4932806;28;20396;-64
2022/11/14 16:22:32;;;;;;;;;;;;;;;;;;4932272;28;20352;-64
2022/11/14 16:25:00;;;;;;;;;;;;;;;;;;4934284;28;20327;-64
2022/11/14 16:27:26;;;;;;;;;;;;;;;;;;4932882;28;20411;-64
2022/11/14 16:29:52;;;;;;;;;;;;;;;;;;4932504;28;20475;-64
2022/11/14 16:32:17;;;;;;;;;;;;;;;;;;4932808;28;20313;-64
2022/11/14 16:34:42;;;;;;;;;;;;;;;;;;4932140;28;20016;-64
2022/11/14 16:37:12;;;;;;;;;;;;;;;;;;4931920;28;20317;-64
2022/11/14 16:39:37;;;;;;;;;;;;;;;;;;4932355;28;20253;-63
2022/11/14 16:42:03;;;;;;;;;;;;;;;;;;4932187;28;20325;-64
2022/11/14 16:44:29;;;;;;;;;;;;;;;;;;4932408;28;20256;-64
2022/11/14 16:46:54;;;;;;;;;;;;;;;;;;4932359;28;20448;-64
2022/11/14 16:49:20;;;;;;;;;;;;;;;;;;4932139;28;20268;-64
2022/11/14 16:51:49;;;;;;;;;;;;;;;;;;4931927;28;20005;-63
2022/11/14 16:54:19;;;;;;;;;;;;;;;;;;4932277;28;20336;-64
2022/11/14 16:56:44;;;;;;;;;;;;;;;;;;4932930;28;20256;-64
2022/11/14 16:59:10;;;;;;;;;;;;;;;;;;4931980;28;20321;-64
2022/11/14 17:01:36;;;;;;;;;;;;;;;;;;4931814;28;20329;-64
2022/11/14 17:04:01;;;;;;;;;;;;;;;;;;4931190;28;20371;-64
2022/11/14 17:06:27;;;;;;;;;;;;;;;;;;4931362;28;20387;-64
2022/11/14 17:08:57;;;;;;;;;;;;;;;;;;4931710;28;20336;-64
2022/11/14 17:11:23;;;;;;;;;;;;;;;;;;4932412;28;20351;-64
2022/11/14 17:13:48;;;;;;;;;;;;;;;;;;4931644;28;20224;-64
2022/11/14 17:16:14;;;;;;;;;;;;;;;;;;4872720;28;20295;-64